sensor_id;sensor_type;location;lat;lon;timestamp;pressure;altitude;pressure_sealevel;temperature;humidity
62680;BME280;68213;40.528;44.712;2023-07-29T00:00:43;80403.31;;;13.50;68.36
62680;BME280;68213;40.528;44.712;2023-07-29T00:02:59;80399.47;;;13.53;68.70
62680;BME280;68213;40.528;44.712;2023-07-29T00:04:00;80403.38;;;13.52;68.47
62680;BME280;68213;40.528;44.712;2023-07-29T00:05:01;80399.41;;;13.51;68.32
62680;BME280;68213;40.528;44.712;2023-07-29T00:06:02;80402.09;;;13.53;68.25
62680;BME280;68213;40.528;44.712;2023-07-29T00:07:03;80402.09;;;13.53;68.00
62680;BME280;68213;40.528;44.712;2023-07-29T00:08:03;80403.38;;;13.52;68.31
62680;BME280;68213;40.528;44.712;2023-07-29T00:09:04;80405.34;;;13.52;68.22
62680;BME280;68213;40.528;44.712;2023-07-29T00:10:05;80398.19;;;13.54;68.07
62680;BME280;68213;40.528;44.712;2023-07-29T00:11:06;80402.19;;;13.55;68.25
62680;BME280;68213;40.528;44.712;2023-07-29T00:12:07;80402.19;;;13.55;68.21
62680;BME280;68213;40.528;44.712;2023-07-29T00:13:08;80378.94;;;13.36;68.35
62680;BME280;68213;40.528;44.712;2023-07-29T00:14:08;80400.66;;;13.50;68.82
62680;BME280;68213;40.528;44.712;2023-07-29T00:15:11;80397.34;;;13.49;68.64
62680;BME280;68213;40.528;44.712;2023-07-29T00:16:11;80403.22;;;13.48;68.51
62680;BME280;68213;40.528;44.712;2023-07-29T00:17:12;80405.88;;;13.48;68.46
62680;BME280;68213;40.528;44.712;2023-07-29T00:18:13;80405.19;;;13.47;68.60
62680;BME280;68213;40.528;44.712;2023-07-29T00:19:13;80403.13;;;13.46;68.51
62680;BME280;68213;40.528;44.712;2023-07-29T00:20:14;80406.47;;;13.46;68.79
62680;BME280;68213;40.528;44.712;2023-07-29T00:21:15;80405.00;;;13.43;68.99
62680;BME280;68213;40.528;44.712;2023-07-29T00:22:16;80407.03;;;13.45;68.79
62680;BME280;68213;40.528;44.712;2023-07-29T00:23:17;80408.41;;;13.46;68.77
62680;BME280;68213;40.528;44.712;2023-07-29T00:24:21;80405.19;;;13.47;68.91
62680;BME280;68213;40.528;44.712;2023-07-29T00:25:22;80402.09;;;13.37;69.00
62680;BME280;68213;40.528;44.712;2023-07-29T00:26:23;80416.09;;;13.40;68.97
62680;BME280;68213;40.528;44.712;2023-07-29T00:27:26;80418.44;;;13.33;69.45
62680;BME280;68213;40.528;44.712;2023-07-29T00:28:27;80417.75;;;13.33;69.39
62680;BME280;68213;40.528;44.712;2023-07-29T00:29:30;80413.69;;;13.30;69.72
62680;BME280;68213;40.528;44.712;2023-07-29T00:30:30;80419.56;;;13.28;69.92
62680;BME280;68213;40.528;44.712;2023-07-29T00:31:31;80414.28;;;13.28;70.36
62680;BME280;68213;40.528;44.712;2023-07-29T00:32:32;80412.81;;;13.25;70.49
62680;BME280;68213;40.528;44.712;2023-07-29T00:33:32;80416.84;;;13.26;70.59
62680;BME280;68213;40.528;44.712;2023-07-29T00:34:33;80415.38;;;13.23;70.77
62680;BME280;68213;40.528;44.712;2023-07-29T00:35:34;80424.56;;;13.22;70.74
62680;BME280;68213;40.528;44.712;2023-07-29T00:36:35;80422.53;;;13.21;70.75
62680;BME280;68213;40.528;44.712;2023-07-29T00:37:36;80421.66;;;13.16;70.76
62680;BME280;68213;40.528;44.712;2023-07-29T00:38:38;80422.28;;;13.14;70.70
62680;BME280;68213;40.528;44.712;2023-07-29T00:39:38;80416.63;;;13.06;70.96
62680;BME280;68213;40.528;44.712;2023-07-29T00:40:39;80423.44;;;13.11;71.04
62680;BME280;68213;40.528;44.712;2023-07-29T00:41:40;80422.78;;;13.11;71.06
62680;BME280;68213;40.528;44.712;2023-07-29T00:42:41;80416.03;;;13.08;71.04
62680;BME280;68213;40.528;44.712;2023-07-29T00:43:42;80425.31;;;13.09;71.27
62680;BME280;68213;40.528;44.712;2023-07-29T00:44:43;80415.34;;;12.91;71.64
62680;BME280;68213;40.528;44.712;2023-07-29T00:45:44;80425.63;;;12.85;72.22
62680;BME280;68213;40.528;44.712;2023-07-29T00:46:45;80422.81;;;12.81;72.20
62680;BME280;68213;40.528;44.712;2023-07-29T00:47:47;80422.47;;;12.73;72.77
62680;BME280;68213;40.528;44.712;2023-07-29T00:48:48;80421.34;;;12.78;72.50
62680;BME280;68213;40.528;44.712;2023-07-29T00:49:50;80426.72;;;12.80;72.82
62680;BME280;68213;40.528;44.712;2023-07-29T00:50:51;80413.28;;;12.74;72.69
62680;BME280;68213;40.528;44.712;2023-07-29T00:51:52;80416.88;;;12.80;72.54
62680;BME280;68213;40.528;44.712;2023-07-29T00:52:54;80429.38;;;12.80;72.72
62680;BME280;68213;40.528;44.712;2023-07-29T00:53:54;80428.69;;;12.79;72.82
62680;BME280;68213;40.528;44.712;2023-07-29T00:54:55;80420.59;;;12.75;72.78
62680;BME280;68213;40.528;44.712;2023-07-29T00:55:56;80400.63;;;12.56;73.13
62680;BME280;68213;40.528;44.712;2023-07-29T00:56:56;80430.19;;;12.68;73.18
62680;BME280;68213;40.528;44.712;2023-07-29T00:57:57;80425.59;;;12.69;73.42
62680;BME280;68213;40.528;44.712;2023-07-29T00:58:58;80426.97;;;12.70;73.77
62680;BME280;68213;40.528;44.712;2023-07-29T01:00:02;80421.09;;;12.72;73.50
62680;BME280;68213;40.528;44.712;2023-07-29T01:01:05;80426.38;;;12.72;73.12
62680;BME280;68213;40.528;44.712;2023-07-29T01:02:06;80425.59;;;12.69;73.15
62680;BME280;68213;40.528;44.712;2023-07-29T01:03:08;80420.91;;;12.67;73.24
62680;BME280;68213;40.528;44.712;2023-07-29T01:04:08;80430.19;;;12.68;73.44
62680;BME280;68213;40.528;44.712;2023-07-29T01:05:12;80428.34;;;12.71;73.32
62680;BME280;68213;40.528;44.712;2023-07-29T01:06:41;80429.59;;;12.70;73.41
62680;BME280;68213;40.528;44.712;2023-07-29T01:07:59;80427.72;;;12.73;73.40
62680;BME280;68213;40.528;44.712;2023-07-29T01:09:04;80426.38;;;12.72;73.38
62680;BME280;68213;40.528;44.712;2023-07-29T01:11:39;80432.50;;;12.76;73.12
62680;BME280;68213;40.528;44.712;2023-07-29T01:12:58;80433.28;;;12.79;73.13
62680;BME280;68213;40.528;44.712;2023-07-29T01:14:30;80428.09;;;12.81;73.22
62680;BME280;68213;40.528;44.712;2023-07-29T01:15:38;80431.34;;;12.79;73.13
62680;BME280;68213;40.528;44.712;2023-07-29T01:16:52;80432.00;;;12.80;73.12
62680;BME280;68213;40.528;44.712;2023-07-29T01:18:02;80428.75;;;12.81;73.20
62680;BME280;68213;40.528;44.712;2023-07-29T01:19:05;80431.41;;;12.81;73.14
62680;BME280;68213;40.528;44.712;2023-07-29T01:20:14;80428.75;;;12.81;73.01
62680;BME280;68213;40.528;44.712;2023-07-29T01:21:19;80434.84;;;12.84;73.01
62680;BME280;68213;40.528;44.712;2023-07-29T01:22:23;80416.50;;;12.72;72.91
62680;BME280;68213;40.528;44.712;2023-07-29T01:23:26;80414.38;;;12.68;72.87
62680;BME280;68213;40.528;44.712;2023-07-29T01:24:29;80434.75;;;12.82;72.97
62680;BME280;68213;40.528;44.712;2023-07-29T01:25:29;80433.38;;;12.81;72.92
62680;BME280;68213;40.528;44.712;2023-07-29T01:26:30;80434.03;;;12.81;72.94
62680;BME280;68213;40.528;44.712;2023-07-29T01:27:31;80424.31;;;12.70;73.10
62680;BME280;68213;40.528;44.712;2023-07-29T01:28:32;80436.50;;;12.77;72.97
62680;BME280;68213;40.528;44.712;2023-07-29T01:29:33;80437.09;;;12.76;73.05
62680;BME280;68213;40.528;44.712;2023-07-29T01:30:38;80431.13;;;12.75;73.27
62680;BME280;68213;40.528;44.712;2023-07-29T01:31:44;80427.06;;;12.72;73.38
62680;BME280;68213;40.528;44.712;2023-07-29T01:33:08;80431.13;;;12.75;73.04
62680;BME280;68213;40.528;44.712;2023-07-29T01:34:17;80428.34;;;12.71;73.49
62680;BME280;68213;40.528;44.712;2023-07-29T01:35:23;80432.91;;;12.70;73.44
62680;BME280;68213;40.528;44.712;2023-07-29T01:36:28;80429.09;;;12.74;73.16
62680;BME280;68213;40.528;44.712;2023-07-29T01:37:33;80431.47;;;12.67;73.40
62680;BME280;68213;40.528;44.712;2023-07-29T01:38:38;80424.31;;;12.70;73.33
62680;BME280;68213;40.528;44.712;2023-07-29T01:39:41;80426.28;;;12.69;73.36
62680;BME280;68213;40.528;44.712;2023-07-29T01:40:45;80421.69;;;12.70;73.35
62680;BME280;68213;40.528;44.712;2023-07-29T01:41:48;80418.97;;;12.68;73.38
62680;BME280;68213;40.528;44.712;2023-07-29T01:42:49;80424.84;;;12.66;73.46
62680;BME280;68213;40.528;44.712;2023-07-29T01:43:49;80416.16;;;12.64;73.52
62680;BME280;68213;40.528;44.712;2023-07-29T01:44:51;80426.00;;;12.63;73.72
62680;BME280;68213;40.528;44.712;2023-07-29T01:45:55;80429.91;;;12.62;73.58
62680;BME280;68213;40.528;44.712;2023-07-29T01:46:56;80427.97;;;12.63;73.54
62680;BME280;68213;40.528;44.712;2023-07-29T01:47:57;80432.53;;;12.62;73.53
62680;BME280;68213;40.528;44.712;2023-07-29T01:48:57;80429.25;;;12.62;73.67
62680;BME280;68213;40.528;44.712;2023-07-29T01:49:58;80426.00;;;12.63;73.54
62680;BME280;68213;40.528;44.712;2023-07-29T01:50:59;80426.50;;;12.60;73.67
62680;BME280;68213;40.528;44.712;2023-07-29T01:51:59;80427.09;;;12.58;73.98
62680;BME280;68213;40.528;44.712;2023-07-29T01:53:00;80431.09;;;12.59;73.82
62680;BME280;68213;40.528;44.712;2023-07-29T01:54:01;80420.38;;;12.55;73.95
62680;BME280;68213;40.528;44.712;2023-07-29T01:55:02;80424.47;;;12.58;73.58
62680;BME280;68213;40.528;44.712;2023-07-29T01:56:04;80424.47;;;12.58;73.89
62680;BME280;68213;40.528;44.712;2023-07-29T01:57:04;80428.38;;;12.57;73.72
62680;BME280;68213;40.528;44.712;2023-07-29T01:58:05;80426.34;;;12.56;73.86
62680;BME280;68213;40.528;44.712;2023-07-29T01:59:06;80426.94;;;12.54;73.90
62680;BME280;68213;40.528;44.712;2023-07-29T02:00:07;80425.56;;;12.53;73.96
62680;BME280;68213;40.528;44.712;2023-07-29T02:01:08;80425.47;;;12.51;73.92
62680;BME280;68213;40.528;44.712;2023-07-29T02:02:08;80420.78;;;12.49;73.94
62680;BME280;68213;40.528;44.712;2023-07-29T02:03:09;80422.06;;;12.48;74.04
62680;BME280;68213;40.528;44.712;2023-07-29T02:04:10;80424.00;;;12.48;74.34
62680;BME280;68213;40.528;44.712;2023-07-29T02:05:11;80422.72;;;12.49;74.19
62680;BME280;68213;40.528;44.712;2023-07-29T02:06:25;80412.69;;;12.45;74.36
62680;BME280;68213;40.528;44.712;2023-07-29T02:07:27;80414.25;;;12.50;74.13
62680;BME280;68213;40.528;44.712;2023-07-29T02:08:30;80418.81;;;12.50;74.14
62680;BME280;68213;40.528;44.712;2023-07-29T02:09:31;80416.19;;;12.50;74.00
62680;BME280;68213;40.528;44.712;2023-07-29T02:10:32;80410.31;;;12.51;73.93
62680;BME280;68213;40.528;44.712;2023-07-29T02:11:32;80412.97;;;12.51;73.74
62680;BME280;68213;40.528;44.712;2023-07-29T02:12:33;80416.47;;;12.56;73.57
62680;BME280;68213;40.528;44.712;2023-07-29T02:13:34;80412.66;;;12.59;73.53
62680;BME280;68213;40.528;44.712;2023-07-29T02:14:34;80415.38;;;12.61;73.35
62680;BME280;68213;40.528;44.712;2023-07-29T02:15:35;80418.03;;;12.61;73.55
62680;BME280;68213;40.528;44.712;2023-07-29T02:16:36;80412.75;;;12.61;73.69
62680;BME280;68213;40.528;44.712;2023-07-29T02:17:57;80418.03;;;12.61;73.37
62680;BME280;68213;40.528;44.712;2023-07-29T02:18:59;80412.31;;;12.67;73.40
62680;BME280;68213;40.528;44.712;2023-07-29T02:20:00;80413.09;;;12.69;72.71
62680;BME280;68213;40.528;44.712;2023-07-29T02:21:03;80413.94;;;12.74;72.64
62680;BME280;68213;40.528;44.712;2023-07-29T02:22:03;80409.38;;;12.75;72.52
62680;BME280;68213;40.528;44.712;2023-07-29T02:23:04;80414.91;;;12.81;72.21
62680;BME280;68213;40.528;44.712;2023-07-29T02:24:05;80416.38;;;12.84;72.00
62680;BME280;68213;40.528;44.712;2023-07-29T02:25:05;80414.50;;;12.87;71.78
62680;BME280;68213;40.528;44.712;2023-07-29T02:26:06;80419.16;;;12.88;72.00
62680;BME280;68213;40.528;44.712;2023-07-29T02:27:07;80412.03;;;12.91;71.66
62680;BME280;68213;40.528;44.712;2023-07-29T02:28:07;80412.13;;;12.93;71.45
62680;BME280;68213;40.528;44.712;2023-07-29T02:29:08;80414.16;;;12.94;71.58
62680;BME280;68213;40.528;44.712;2023-07-29T02:30:09;80415.00;;;12.99;71.21
62680;BME280;68213;40.528;44.712;2023-07-29T02:31:17;80414.59;;;13.05;70.99
62680;BME280;68213;40.528;44.712;2023-07-29T02:32:18;80413.50;;;13.10;70.84
62680;BME280;68213;40.528;44.712;2023-07-29T02:33:19;80410.94;;;13.12;70.86
62680;BME280;68213;40.528;44.712;2023-07-29T02:34:20;80417.59;;;13.13;70.78
62680;BME280;68213;40.528;44.712;2023-07-29T02:35:20;80408.41;;;13.14;70.71
62680;BME280;68213;40.528;44.712;2023-07-29T02:36:21;80410.34;;;13.13;70.77
62680;BME280;68213;40.528;44.712;2023-07-29T02:37:21;80411.63;;;13.12;70.81
62680;BME280;68213;40.528;44.712;2023-07-29T02:38:24;80411.28;;;13.20;70.33
62680;BME280;68213;40.528;44.712;2023-07-29T02:39:25;80404.13;;;13.23;70.38
62680;BME280;68213;40.528;44.712;2023-07-29T02:40:26;80411.56;;;13.26;70.42
62680;BME280;68213;40.528;44.712;2023-07-29T02:41:27;80409.16;;;13.32;69.69
62680;BME280;68213;40.528;44.712;2023-07-29T02:42:27;80411.97;;;13.37;69.76
62680;BME280;68213;40.528;44.712;2023-07-29T02:43:28;80408.16;;;13.40;69.39
62680;BME280;68213;40.528;44.712;2023-07-29T02:44:29;80407.50;;;13.39;69.50
62680;BME280;68213;40.528;44.712;2023-07-29T02:45:29;80414.72;;;13.39;69.70
62680;BME280;68213;40.528;44.712;2023-07-29T02:46:30;80411.06;;;13.46;69.62
62680;BME280;68213;40.528;44.712;2023-07-29T02:47:30;80407.91;;;13.49;69.38
62680;BME280;68213;40.528;44.712;2023-07-29T02:48:31;80412.00;;;13.53;69.79
62680;BME280;68213;40.528;44.712;2023-07-29T02:49:32;80412.16;;;13.57;69.74
62680;BME280;68213;40.528;44.712;2023-07-29T02:50:34;80407.38;;;13.53;69.65
62680;BME280;68213;40.528;44.712;2023-07-29T02:51:35;80416.91;;;13.60;69.55
62680;BME280;68213;40.528;44.712;2023-07-29T02:52:35;80413.84;;;13.66;69.51
62680;BME280;68213;40.528;44.712;2023-07-29T02:53:36;80414.72;;;13.71;69.32
62680;BME280;68213;40.528;44.712;2023-07-29T02:54:37;80420.84;;;13.75;69.25
62680;BME280;68213;40.528;44.712;2023-07-29T02:55:41;80416.41;;;13.80;69.07
62680;BME280;68213;40.528;44.712;2023-07-29T02:56:41;80415.19;;;13.83;69.28
62680;BME280;68213;40.528;44.712;2023-07-29T02:57:42;80420.66;;;13.87;69.15
62680;BME280;68213;40.528;44.712;2023-07-29T02:58:43;80422.19;;;13.92;69.16
62680;BME280;68213;40.528;44.712;2023-07-29T02:59:44;80415.00;;;13.95;69.08
62680;BME280;68213;40.528;44.712;2023-07-29T03:00:45;80419.78;;;13.99;69.29
62680;BME280;68213;40.528;44.712;2023-07-29T03:01:47;80412.44;;;13.97;69.41
62680;BME280;68213;40.528;44.712;2023-07-29T03:02:50;80410.16;;;13.89;70.34
62680;BME280;68213;40.528;44.712;2023-07-29T03:03:51;80412.03;;;13.87;70.72
62680;BME280;68213;40.528;44.712;2023-07-29T03:04:51;80419.28;;;13.86;70.73
62680;BME280;68213;40.528;44.712;2023-07-29T03:06:01;80418.69;;;13.88;70.91
62680;BME280;68213;40.528;44.712;2023-07-29T03:07:02;80414.91;;;13.93;71.09
62680;BME280;68213;40.528;44.712;2023-07-29T03:08:03;80419.78;;;13.99;70.00
62680;BME280;68213;40.528;44.712;2023-07-29T03:09:04;80419.25;;;14.02;70.39
62680;BME280;68213;40.528;44.712;2023-07-29T03:10:05;80418.75;;;14.06;71.34
62680;BME280;68213;40.528;44.712;2023-07-29T03:11:09;80418.91;;;14.10;70.96
62680;BME280;68213;40.528;44.712;2023-07-29T03:12:09;80415.81;;;14.16;70.70
62680;BME280;68213;40.528;44.712;2023-07-29T03:13:10;80418.53;;;14.18;71.04
62680;BME280;68213;40.528;44.712;2023-07-29T03:14:11;80420.75;;;14.23;71.16
62680;BME280;68213;40.528;44.712;2023-07-29T03:15:11;80420.97;;;14.30;70.34
62680;BME280;68213;40.528;44.712;2023-07-29T03:16:16;80425.75;;;14.33;71.08
62680;BME280;68213;40.528;44.712;2023-07-29T03:17:17;80419.28;;;14.36;71.30
62680;BME280;68213;40.528;44.712;2023-07-29T03:18:20;80418.13;;;14.41;69.99
62680;BME280;68213;40.528;44.712;2023-07-29T03:19:20;80419.56;;;14.44;68.52
62680;BME280;68213;40.528;44.712;2023-07-29T03:20:21;80420.88;;;14.43;69.75
62680;BME280;68213;40.528;44.712;2023-07-29T03:21:22;80419.50;;;14.42;69.31
62680;BME280;68213;40.528;44.712;2023-07-29T03:22:22;80425.31;;;14.39;68.91
62680;BME280;68213;40.528;44.712;2023-07-29T03:23:23;80418.97;;;14.46;69.23
62680;BME280;68213;40.528;44.712;2023-07-29T03:24:24;80420.41;;;14.49;68.82
62680;BME280;68213;40.528;44.712;2023-07-29T03:25:24;80418.97;;;14.46;67.98
62680;BME280;68213;40.528;44.712;2023-07-29T03:26:25;80425.25;;;14.55;68.44
62680;BME280;68213;40.528;44.712;2023-07-29T03:27:26;80417.94;;;14.53;68.31
62680;BME280;68213;40.528;44.712;2023-07-29T03:28:28;80416.66;;;14.54;67.83
62680;BME280;68213;40.528;44.712;2023-07-29T03:29:29;80419.00;;;14.64;67.52
62680;BME280;68213;40.528;44.712;2023-07-29T03:30:30;80425.22;;;14.71;67.08
62680;BME280;68213;40.528;44.712;2023-07-29T03:31:30;80421.97;;;14.72;66.60
62680;BME280;68213;40.528;44.712;2023-07-29T03:32:32;80424.09;;;14.76;66.67
62680;BME280;68213;40.528;44.712;2023-07-29T03:33:32;80420.75;;;14.75;66.55
62680;BME280;68213;40.528;44.712;2023-07-29T03:34:33;80426.28;;;14.82;66.45
62680;BME280;68213;40.528;44.712;2023-07-29T03:35:34;80413.19;;;14.86;66.37
62680;BME280;68213;40.528;44.712;2023-07-29T03:36:35;80415.41;;;14.91;65.52
62680;BME280;68213;40.528;44.712;2023-07-29T03:37:35;80409.50;;;14.93;65.98
62680;BME280;68213;40.528;44.712;2023-07-29T03:38:36;80407.50;;;14.94;66.23
62680;BME280;68213;40.528;44.712;2023-07-29T03:39:40;80415.84;;;15.04;66.00
62680;BME280;68213;40.528;44.712;2023-07-29T03:40:41;80404.34;;;14.97;66.12
62680;BME280;68213;40.528;44.712;2023-07-29T03:41:42;80422.09;;;15.13;67.21
62680;BME280;68213;40.528;44.712;2023-07-29T03:42:43;80422.25;;;15.17;67.87
62680;BME280;68213;40.528;44.712;2023-07-29T03:43:43;80423.09;;;15.21;67.83
62680;BME280;68213;40.528;44.712;2023-07-29T03:44:44;80417.19;;;15.23;67.40
62680;BME280;68213;40.528;44.712;2023-07-29T03:45:45;80391.25;;;15.01;67.21
62680;BME280;68213;40.528;44.712;2023-07-29T03:46:45;80415.91;;;15.24;66.97
62680;BME280;68213;40.528;44.712;2023-07-29T03:47:46;80418.63;;;15.26;65.96
62680;BME280;68213;40.528;44.712;2023-07-29T03:48:47;80420.88;;;15.34;65.66
62680;BME280;68213;40.528;44.712;2023-07-29T03:49:48;80416.50;;;15.41;65.31
62680;BME280;68213;40.528;44.712;2023-07-29T03:50:49;80417.97;;;15.46;64.79
62680;BME280;68213;40.528;44.712;2023-07-29T03:51:49;80417.44;;;15.49;65.01
62680;BME280;68213;40.528;44.712;2023-07-29T03:52:50;80417.53;;;15.51;65.69
62680;BME280;68213;40.528;44.712;2023-07-29T03:53:51;80407.06;;;15.55;64.88
62680;BME280;68213;40.528;44.712;2023-07-29T03:54:51;80415.75;;;15.58;64.19
62680;BME280;68213;40.528;44.712;2023-07-29T03:55:52;80411.97;;;15.63;64.08
62680;BME280;68213;40.528;44.712;2023-07-29T03:56:53;80412.78;;;15.68;63.83
62680;BME280;68213;40.528;44.712;2023-07-29T03:57:53;80417.59;;;15.74;63.71
62680;BME280;68213;40.528;44.712;2023-07-29T04:00:09;80411.75;;;15.77;64.00
62680;BME280;68213;40.528;44.712;2023-07-29T04:01:11;80411.03;;;15.75;64.26
62680;BME280;68213;40.528;44.712;2023-07-29T04:02:11;80407.28;;;15.82;64.05
62680;BME280;68213;40.528;44.712;2023-07-29T04:03:12;80410.56;;;15.80;62.96
62680;BME280;68213;40.528;44.712;2023-07-29T04:04:13;80412.22;;;15.90;62.58
62680;BME280;68213;40.528;44.712;2023-07-29T04:05:13;80400.25;;;15.89;63.46
62680;BME280;68213;40.528;44.712;2023-07-29T04:06:14;80412.34;;;15.94;63.08
62680;BME280;68213;40.528;44.712;2023-07-29T04:07:15;80413.84;;;15.99;62.63
62680;BME280;68213;40.528;44.712;2023-07-29T04:08:15;80397.19;;;15.96;62.75
62680;BME280;68213;40.528;44.712;2023-07-29T04:09:16;80407.44;;;16.06;62.70
62680;BME280;68213;40.528;44.712;2023-07-29T04:10:19;80411.06;;;16.15;62.21
62680;BME280;68213;40.528;44.712;2023-07-29T04:11:20;80407.78;;;16.16;62.25
62680;BME280;68213;40.528;44.712;2023-07-29T04:12:21;80408.59;;;16.21;62.15
62680;BME280;68213;40.528;44.712;2023-07-29T04:13:22;80413.28;;;16.23;62.60
62680;BME280;68213;40.528;44.712;2023-07-29T04:14:22;80382.16;;;16.03;62.25
62680;BME280;68213;40.528;44.712;2023-07-29T04:15:23;80408.91;;;16.31;63.58
62680;BME280;68213;40.528;44.712;2023-07-29T04:16:24;80391.34;;;16.20;61.93
62680;BME280;68213;40.528;44.712;2023-07-29T04:17:24;80405.78;;;16.37;61.75
62680;BME280;68213;40.528;44.712;2023-07-29T04:18:25;80412.47;;;16.38;61.16
62680;BME280;68213;40.528;44.712;2023-07-29T04:19:26;80409.25;;;16.42;60.79
62680;BME280;68213;40.528;44.712;2023-07-29T04:20:26;80410.16;;;16.48;60.85
62680;BME280;68213;40.528;44.712;2023-07-29T04:21:27;80410.16;;;16.48;61.07
62680;BME280;68213;40.528;44.712;2023-07-29T04:22:28;80411.56;;;16.52;61.04
62680;BME280;68213;40.528;44.712;2023-07-29T04:23:28;80416.94;;;16.54;60.75
62680;BME280;68213;40.528;44.712;2023-07-29T04:24:29;80412.91;;;16.53;61.11
62680;BME280;68213;40.528;44.712;2023-07-29T04:25:30;80414.53;;;16.62;61.05
62680;BME280;68213;40.528;44.712;2023-07-29T04:26:30;80415.81;;;16.61;60.90
62680;BME280;68213;40.528;44.712;2023-07-29T04:27:31;80423.88;;;16.63;60.55
62680;BME280;68213;40.528;44.712;2023-07-29T04:28:32;80425.34;;;16.68;60.46
62680;BME280;68213;40.528;44.712;2023-07-29T04:29:34;80397.19;;;16.59;60.39
62680;BME280;68213;40.528;44.712;2023-07-29T04:30:38;80423.56;;;16.75;60.37
62680;BME280;68213;40.528;44.712;2023-07-29T04:31:39;80422.47;;;16.82;60.32
62680;BME280;68213;40.528;44.712;2023-07-29T04:32:40;80425.22;;;16.86;60.16
62680;BME280;68213;40.528;44.712;2023-07-29T04:33:42;80422.19;;;16.94;60.20
62680;BME280;68213;40.528;44.712;2023-07-29T04:34:43;80410.19;;;16.93;60.22
62680;BME280;68213;40.528;44.712;2023-07-29T04:35:43;80406.66;;;16.86;60.88
62680;BME280;68213;40.528;44.712;2023-07-29T04:36:45;80414.88;;;16.94;60.64
62680;BME280;68213;40.528;44.712;2023-07-29T04:37:46;80414.25;;;16.96;60.47
62680;BME280;68213;40.528;44.712;2023-07-29T04:38:48;80418.41;;;17.01;60.36
62680;BME280;68213;40.528;44.712;2023-07-29T04:39:49;80416.44;;;17.02;59.82
62680;BME280;68213;40.528;44.712;2023-07-29T04:40:50;80425.81;;;17.05;59.71
62680;BME280;68213;40.528;44.712;2023-07-29T04:41:50;80419.97;;;17.08;59.90
62680;BME280;68213;40.528;44.712;2023-07-29T04:42:51;80426.69;;;17.11;60.12
62680;BME280;68213;40.528;44.712;2023-07-29T04:43:52;80404.34;;;16.96;59.95
62680;BME280;68213;40.528;44.712;2023-07-29T04:44:53;80416.19;;;17.16;60.01
62680;BME280;68213;40.528;44.712;2023-07-29T04:45:54;80432.06;;;17.13;60.08
62680;BME280;68213;40.528;44.712;2023-07-29T04:46:54;80425.94;;;17.09;60.95
62680;BME280;68213;40.528;44.712;2023-07-29T04:47:56;80404.38;;;16.99;61.01
62680;BME280;68213;40.528;44.712;2023-07-29T04:48:56;80424.75;;;17.14;61.16
62680;BME280;68213;40.528;44.712;2023-07-29T04:49:57;80424.25;;;17.20;60.65
62680;BME280;68213;40.528;44.712;2023-07-29T04:50:57;80424.50;;;17.28;60.01
62680;BME280;68213;40.528;44.712;2023-07-29T04:51:58;80425.88;;;17.29;59.93
62680;BME280;68213;40.528;44.712;2023-07-29T04:52:59;80416.47;;;17.26;59.90
62680;BME280;68213;40.528;44.712;2023-07-29T04:54:00;80424.63;;;17.32;60.13
62680;BME280;68213;40.528;44.712;2023-07-29T04:55:01;80422.66;;;17.33;60.18
62680;BME280;68213;40.528;44.712;2023-07-29T04:56:02;80418.81;;;17.38;59.97
62680;BME280;68213;40.528;44.712;2023-07-29T04:57:03;80418.88;;;17.40;59.57
62680;BME280;68213;40.528;44.712;2023-07-29T04:58:05;80425.31;;;17.33;60.54
62680;BME280;68213;40.528;44.712;2023-07-29T04:59:06;80419.53;;;17.40;59.77
62680;BME280;68213;40.528;44.712;2023-07-29T05:00:09;80420.25;;;17.41;59.51
62680;BME280;68213;40.528;44.712;2023-07-29T05:01:13;80419.78;;;17.49;59.30
62680;BME280;68213;40.528;44.712;2023-07-29T05:02:13;80417.28;;;17.55;59.11
62680;BME280;68213;40.528;44.712;2023-07-29T05:04:32;80406.38;;;17.44;58.72
62680;BME280;68213;40.528;44.712;2023-07-29T05:05:33;80422.19;;;17.63;58.47
62680;BME280;68213;40.528;44.712;2023-07-29T05:06:34;80428.22;;;17.65;58.87
62680;BME280;68213;40.528;44.712;2023-07-29T05:07:35;80427.72;;;17.71;58.70
62680;BME280;68213;40.528;44.712;2023-07-29T05:08:36;80423.22;;;17.75;59.90
62680;BME280;68213;40.528;44.712;2023-07-29T05:09:36;80430.00;;;17.81;58.77
62680;BME280;68213;40.528;44.712;2023-07-29T05:10:37;80432.72;;;17.83;58.67
62680;BME280;68213;40.528;44.712;2023-07-29T05:11:38;80423.53;;;17.88;58.85
62680;BME280;68213;40.528;44.712;2023-07-29T05:12:38;80420.19;;;17.87;58.78
62680;BME280;68213;40.528;44.712;2023-07-29T05:13:39;80420.75;;;17.84;58.72
62680;BME280;68213;40.528;44.712;2023-07-29T05:14:40;80427.09;;;17.72;58.47
62680;BME280;68213;40.528;44.712;2023-07-29T05:15:40;80423.22;;;17.75;58.75
62680;BME280;68213;40.528;44.712;2023-07-29T05:16:41;80416.63;;;17.79;59.42
62680;BME280;68213;40.528;44.712;2023-07-29T05:17:42;80420.97;;;17.92;59.58
62680;BME280;68213;40.528;44.712;2023-07-29T05:18:42;80417.66;;;17.91;60.47
62680;BME280;68213;40.528;44.712;2023-07-29T05:19:43;80418.69;;;18.04;59.70
62680;BME280;68213;40.528;44.712;2023-07-29T05:20:44;80397.66;;;17.90;58.25
62680;BME280;68213;40.528;44.712;2023-07-29T05:21:45;80421.44;;;18.08;58.26
62680;BME280;68213;40.528;44.712;2023-07-29T05:22:45;80403.97;;;18.01;58.30
62680;BME280;68213;40.528;44.712;2023-07-29T05:23:48;80382.97;;;17.87;59.17
62680;BME280;68213;40.528;44.712;2023-07-29T05:24:49;80421.59;;;18.15;59.02
62680;BME280;68213;40.528;44.712;2023-07-29T05:25:49;80431.22;;;18.26;58.41
62680;BME280;68213;40.528;44.712;2023-07-29T05:26:50;80424.03;;;18.31;58.35
62680;BME280;68213;40.528;44.712;2023-07-29T05:27:51;80429.34;;;18.31;57.62
62680;BME280;68213;40.528;44.712;2023-07-29T05:28:52;80430.28;;;18.15;57.98